Weather at Hang Nadim International Airport

Public forecast

Using degrees Celsius for public forecast. Weather courtesy of forecast.io.

Current aviation weather report (METAR) for Hang Nadim International Airport

2023/01/31 17:00 (retrieved 38 minutes ago)

WIDD 311700Z 34005KT 9999 SCT014 25/24 Q1012 NOSIG

Aviation forecast (TAF) for Hang Nadim International Airport

2023/01/31 12:00 (retrieved 6 hours ago)

TAF WIDD 311100Z 3112/0112 01009KT 9000 FEW014